Time;durP1;ratioP1;P1;durP2;ratioP2;P2;SDS_P1;SDS_P2;PMS_P1;PMS_P2;Temp;Humidity;BMP_temperature;BMP_pressure;BME280_temperature;BME280_humidity;BME280_pressure;Samples;Min_cycle;Max_cycle;Signal;HPM_P1;HPM_P2
2023/06/10 00:01:57;;;;;;;1.33;1.23;;;19.90;99.90;;;;;;5029092;28;20236;-68
2023/06/10 00:04:25;;;;;;;2.65;1.30;;;19.90;99.90;;;;;;5024847;28;20813;-68
2023/06/10 00:06:57;;;;;;;1.83;1.55;;;19.90;99.90;;;;;;5026630;28;20658;-66
2023/06/10 00:09:25;;;;;;;1.10;1.00;;;20.00;99.90;;;;;;5030179;28;20213;-67
2023/06/10 00:11:53;;;;;;;0.80;0.80;;;19.90;99.90;;;;;;5030660;28;20221;-68
2023/06/10 00:14:21;;;;;;;1.60;1.50;;;19.90;99.90;;;;;;5029929;28;20217;-68
2023/06/10 00:16:49;;;;;;;1.52;1.42;;;19.90;99.90;;;;;;5030699;28;20214;-68
2023/06/10 00:19:18;;;;;;;1.75;1.52;;;19.90;99.90;;;;;;5026497;28;20292;-67
2023/06/10 00:21:50;;;;;;;1.27;1.13;;;19.90;99.90;;;;;;5029719;28;20216;-67
2023/06/10 00:24:20;;;;;;;1.40;1.30;;;19.90;99.90;;;;;;5030025;28;20291;-70
2023/06/10 00:26:48;;;;;;;1.48;1.38;;;19.90;99.90;;;;;;5028497;28;20207;-66
2023/06/10 00:29:16;;;;;;;1.10;1.00;;;19.80;99.90;;;;;;5017636;28;20205;-66
2023/06/10 00:31:46;;;;;;;1.08;0.95;;;19.90;99.90;;;;;;5023629;28;20234;-69
2023/06/10 00:34:14;;;;;;;1.25;1.15;;;19.90;99.90;;;;;;5028035;28;20287;-69
2023/06/10 00:36:43;;;;;;;1.55;1.00;;;19.90;99.90;;;;;;5023805;28;20222;-68
2023/06/10 00:39:11;;;;;;;1.20;1.10;;;19.90;99.90;;;;;;5029698;28;20680;-68
2023/06/10 00:41:40;;;;;;;1.05;0.95;;;19.90;99.90;;;;;;5030315;28;20228;-68
2023/06/10 00:44:08;;;;;;;1.08;1.00;;;19.80;99.90;;;;;;5029267;28;20598;-68
2023/06/10 00:46:37;;;;;;;1.77;1.67;;;19.80;99.90;;;;;;5029980;28;20212;-68
2023/06/10 00:49:06;;;;;;;2.10;1.50;;;19.80;99.90;;;;;;5024329;28;20209;-68
2023/06/10 00:51:34;;;;;;;1.40;1.10;;;19.70;99.90;;;;;;5030133;28;20233;-68
2023/06/10 00:54:02;;;;;;;1.50;1.40;;;19.70;99.90;;;;;;5029837;28;20216;-68
2023/06/10 00:56:31;;;;;;;1.17;0.90;;;19.70;99.90;;;;;;5021951;28;20212;-68
2023/06/10 00:59:00;;;;;;;2.30;1.55;;;19.70;99.90;;;;;;5020908;28;20680;-67
2023/06/10 01:01:29;;;;;;;1.35;1.25;;;19.70;99.90;;;;;;5022434;28;20770;-68
2023/06/10 01:03:58;;;;;;;1.48;1.30;;;19.70;99.90;;;;;;5024899;28;20228;-68
2023/06/10 01:06:37;;;;;;;1.50;1.40;;;19.70;99.90;;;;;;5025222;28;20654;-67
2023/06/10 01:09:14;;;;;;;1.65;1.38;;;19.60;99.90;;;;;;5027718;28;20205;-68
2023/06/10 01:11:48;;;;;;;1.88;1.20;;;19.60;99.90;;;;;;5026694;28;20617;-68
2023/06/10 01:14:18;;;;;;;1.00;0.90;;;19.60;99.90;;;;;;5027687;28;20211;-69
2023/06/10 01:16:46;;;;;;;0.80;0.80;;;19.60;99.90;;;;;;5028424;28;20619;-68
2023/06/10 01:19:15;;;;;;;1.55;1.45;;;19.60;99.90;;;;;;5025982;28;20276;-68
2023/06/10 01:21:48;;;;;;;1.02;0.73;;;19.60;99.90;;;;;;5027276;28;20216;-68
2023/06/10 01:24:18;;;;;;;1.25;1.15;;;19.60;99.90;;;;;;5028868;28;20229;-68
2023/06/10 01:26:51;;;;;;;1.55;1.20;;;19.60;99.90;;;;;;5027146;28;20205;-69
2023/06/10 01:29:22;;;;;;;1.55;1.45;;;19.50;99.90;;;;;;5025799;28;20216;-68
2023/06/10 01:32:02;;;;;;;1.35;1.10;;;19.50;99.90;;;;;;5027229;28;20233;-69
2023/06/10 01:34:32;;;;;;;1.20;0.90;;;19.50;99.90;;;;;;5032289;28;20204;-69
2023/06/10 01:37:03;;;;;;;1.98;1.38;;;19.50;99.90;;;;;;5031211;28;20616;-69
2023/06/10 01:39:33;;;;;;;0.93;0.82;;;19.50;99.90;;;;;;5030591;28;20578;-69
2023/06/10 01:42:02;;;;;;;1.45;1.35;;;19.40;99.90;;;;;;5031164;28;20734;-68
2023/06/10 01:44:30;;;;;;;1.23;1.10;;;19.40;99.90;;;;;;5030658;28;20275;-69
2023/06/10 01:46:58;;;;;;;1.92;1.58;;;19.40;99.90;;;;;;5029185;28;20213;-69
2023/06/10 01:49:26;;;;;;;0.70;0.70;;;19.40;99.90;;;;;;5026580;28;20207;-69
2023/06/10 01:51:54;;;;;;;1.42;1.10;;;19.30;99.90;;;;;;5033366;28;20557;-68
2023/06/10 01:54:23;;;;;;;1.30;1.05;;;19.30;99.90;;;;;;5029988;28;20208;-69
2023/06/10 01:56:52;;;;;;;1.25;1.15;;;19.40;99.90;;;;;;5033115;28;20208;-69
2023/06/10 01:59:20;;;;;;;1.20;1.10;;;19.30;99.90;;;;;;5030865;28;20205;-69
2023/06/10 02:01:47;;;;;;;1.40;1.30;;;19.30;99.90;;;;;;5025994;28;20290;-69
2023/06/10 02:04:16;;;;;;;1.80;1.27;;;19.20;99.90;;;;;;5030370;28;20225;-69
2023/06/10 02:06:45;;;;;;;1.90;1.73;;;19.30;99.90;;;;;;5030230;28;20207;-70
2023/06/10 02:09:12;;;;;;;1.42;1.20;;;19.20;99.90;;;;;;5029744;28;20223;-69
2023/06/10 02:11:42;;;;;;;0.80;0.77;;;19.30;99.90;;;;;;5031365;28;20224;-70
2023/06/10 02:14:09;;;;;;;1.00;0.85;;;19.20;99.90;;;;;;5029515;28;20204;-70
2023/06/10 02:16:37;;;;;;;2.10;1.20;;;19.20;99.90;;;;;;5031142;28;20201;-70
2023/06/10 02:19:06;;;;;;;1.20;1.10;;;19.20;99.90;;;;;;5028616;28;20240;-69
2023/06/10 02:21:34;;;;;;;0.95;0.88;;;19.30;99.90;;;;;;5027856;28;20283;-69
2023/06/10 02:24:02;;;;;;;1.10;1.00;;;19.20;99.90;;;;;;5030103;28;20626;-71
2023/06/10 02:26:31;;;;;;;0.80;0.70;;;19.20;99.90;;;;;;5029371;28;20197;-69
2023/06/10 02:29:00;;;;;;;0.98;0.88;;;19.20;99.90;;;;;;5029835;28;20259;-69
2023/06/10 02:31:28;;;;;;;1.13;0.90;;;19.20;99.90;;;;;;5028032;28;20228;-69
2023/06/10 02:33:56;;;;;;;1.80;1.60;;;19.20;99.90;;;;;;5022558;28;20687;-69
2023/06/10 02:36:28;;;;;;;0.80;0.73;;;19.10;99.90;;;;;;5029980;28;20215;-70
2023/06/10 02:38:55;;;;;;;1.00;0.85;;;19.10;99.90;;;;;;5029585;28;20205;-68
2023/06/10 02:41:24;;;;;;;1.08;0.98;;;19.10;99.90;;;;;;5027160;28;20304;-67
2023/06/10 02:43:52;;;;;;;1.10;1.00;;;19.10;99.90;;;;;;5020480;28;20213;-70
2023/06/10 02:46:22;;;;;;;0.85;0.85;;;19.00;99.90;;;;;;5030431;28;20235;-70
2023/06/10 02:48:51;;;;;;;1.27;1.13;;;19.10;99.90;;;;;;5030326;28;20668;-70
2023/06/10 02:51:20;;;;;;;1.15;1.02;;;19.10;99.90;;;;;;5027053;28;20897;-71
2023/06/10 02:53:48;;;;;;;0.80;0.73;;;19.10;99.90;;;;;;5029289;28;20212;-70
2023/06/10 02:56:17;;;;;;;1.38;1.17;;;19.10;99.90;;;;;;5029840;28;20205;-70
2023/06/10 02:58:45;;;;;;;1.20;0.80;;;19.10;99.90;;;;;;5029082;28;20219;-71
2023/06/10 03:01:13;;;;;;;1.17;1.08;;;19.10;99.90;;;;;;5029486;28;20224;-68
2023/06/10 03:03:43;;;;;;;0.90;0.90;;;19.10;99.90;;;;;;5030738;28;20291;-68
2023/06/10 03:06:12;;;;;;;1.08;0.98;;;19.10;99.90;;;;;;5029344;28;20225;-68
2023/06/10 03:08:40;;;;;;;1.20;1.05;;;19.00;99.90;;;;;;5029615;28;20686;-69
2023/06/10 03:11:08;;;;;;;1.23;1.10;;;19.00;99.90;;;;;;5031673;28;20323;-69
2023/06/10 03:13:36;;;;;;;0.80;0.80;;;19.00;99.90;;;;;;5028017;28;20215;-69
2023/06/10 03:16:05;;;;;;;0.98;0.88;;;19.00;99.90;;;;;;5030314;28;20201;-69
2023/06/10 03:18:32;;;;;;;1.38;1.20;;;19.00;99.90;;;;;;5030398;28;20219;-68
2023/06/10 03:21:02;;;;;;;1.17;1.08;;;19.00;99.90;;;;;;5029564;28;20247;-70
2023/06/10 03:23:30;;;;;;;0.70;0.70;;;19.00;99.90;;;;;;5027284;28;20200;-71
2023/06/10 03:25:58;;;;;;;0.80;0.70;;;19.00;99.90;;;;;;5025878;28;20290;-69
2023/06/10 03:28:26;;;;;;;1.08;0.98;;;19.00;99.90;;;;;;5029280;28;20231;-69
2023/06/10 03:30:54;;;;;;;1.05;0.90;;;19.00;99.90;;;;;;5053299;22;20599;-65
2023/06/10 03:33:22;;;;;;;0.80;0.80;;;19.00;99.90;;;;;;5031908;28;20699;-65
2023/06/10 03:35:50;;;;;;;0.75;0.70;;;19.00;99.90;;;;;;5029946;28;20193;-65
2023/06/10 03:38:20;;;;;;;1.25;1.15;;;19.00;99.90;;;;;;5029451;28;20263;-65
2023/06/10 03:40:48;;;;;;;1.33;1.20;;;18.90;99.90;;;;;;5031363;28;20613;-65
2023/06/10 03:43:16;;;;;;;1.15;1.05;;;18.90;99.90;;;;;;5027989;28;20208;-64
2023/06/10 03:45:45;;;;;;;0.95;0.88;;;18.90;99.90;;;;;;5025213;28;20247;-65
2023/06/10 03:48:13;;;;;;;1.60;1.00;;;18.80;99.90;;;;;;5028530;28;20205;-65
2023/06/10 03:50:40;;;;;;;0.80;0.80;;;18.80;99.90;;;;;;5022301;28;20213;-65
2023/06/10 03:53:08;;;;;;;2.13;1.00;;;18.80;99.90;;;;;;5029119;28;20200;-64
2023/06/10 03:55:38;;;;;;;1.10;1.00;;;18.80;99.90;;;;;;5027544;28;20201;-65
2023/06/10 03:58:05;;;;;;;0.93;0.82;;;18.80;99.90;;;;;;5022297;28;20208;-64
2023/06/10 04:00:41;;;;;;;1.30;0.80;;;18.80;99.90;;;;;;5016679;28;20209;-64
2023/06/10 04:03:14;;;;;;;2.30;1.00;;;18.70;99.90;;;;;;5029613;28;20231;-64
2023/06/10 04:05:42;;;;;;;1.83;1.08;;;18.80;99.90;;;;;;5030644;28;20244;-64
2023/06/10 04:08:10;;;;;;;1.08;0.93;;;18.80;99.90;;;;;;5030295;28;20205;-64
2023/06/10 04:10:40;;;;;;;1.75;1.02;;;18.80;99.90;;;;;;5023187;28;20203;-63
2023/06/10 04:13:08;;;;;;;1.35;0.77;;;18.80;99.90;;;;;;5025854;28;20204;-64
2023/06/10 04:15:36;;;;;;;0.82;0.82;;;18.80;99.90;;;;;;5014801;28;20203;-64
2023/06/10 04:18:05;;;;;;;1.08;1.00;;;18.80;99.90;;;;;;5029940;28;20201;-64
2023/06/10 04:20:33;;;;;;;1.25;1.02;;;18.80;99.90;;;;;;5030017;28;20212;-63
2023/06/10 04:23:01;;;;;;;0.90;0.77;;;18.90;99.90;;;;;;5030061;28;20208;-63
2023/06/10 04:25:29;;;;;;;1.65;0.85;;;18.90;99.90;;;;;;5028655;28;20589;-64
2023/06/10 04:27:58;;;;;;;1.10;1.00;;;18.90;99.90;;;;;;5024527;28;20664;-64
2023/06/10 04:30:26;;;;;;;2.47;1.15;;;19.00;99.90;;;;;;5025857;28;20207;-63
2023/06/10 04:32:54;;;;;;;0.90;0.80;;;19.00;99.90;;;;;;5024772;28;20236;-64
2023/06/10 04:35:22;;;;;;;1.50;0.98;;;19.10;99.90;;;;;;5019127;28;20228;-64
2023/06/10 04:37:50;;;;;;;1.58;1.48;;;19.10;99.90;;;;;;5028464;28;20205;-62
2023/06/10 04:40:18;;;;;;;0.73;0.73;;;19.10;99.90;;;;;;5026113;28;20205;-62
2023/06/10 04:42:46;;;;;;;1.13;1.02;;;19.20;99.90;;;;;;5025312;28;20593;-64
2023/06/10 04:45:15;;;;;;;1.40;1.10;;;19.20;99.90;;;;;;5024873;28;20200;-64
2023/06/10 04:47:43;;;;;;;1.60;0.80;;;19.20;99.90;;;;;;5024929;28;20276;-64
2023/06/10 04:50:11;;;;;;;0.80;0.80;;;19.30;99.90;;;;;;5027146;28;20270;-64
2023/06/10 04:52:41;;;;;;;0.90;0.80;;;19.30;99.90;;;;;;5025308;28;20235;-64
2023/06/10 04:55:09;;;;;;;1.30;1.10;;;19.40;99.90;;;;;;5021551;28;20201;-64
2023/06/10 04:57:38;;;;;;;1.42;1.33;;;19.50;99.90;;;;;;5027103;28;20244;-64
2023/06/10 05:00:08;;;;;;;1.48;1.15;;;19.50;99.90;;;;;;5024765;28;20704;-64
2023/06/10 05:02:37;;;;;;;1.00;0.90;;;19.60;99.90;;;;;;5025066;28;20221;-64
2023/06/10 05:05:06;;;;;;;1.35;1.25;;;19.70;99.90;;;;;;5021642;28;20213;-63
2023/06/10 05:07:34;;;;;;;1.77;1.05;;;19.80;99.90;;;;;;5025367;28;20565;-64
2023/06/10 05:10:02;;;;;;;0.90;0.90;;;19.90;99.90;;;;;;5027470;28;20228;-64
2023/06/10 05:12:30;;;;;;;1.48;1.38;;;19.90;99.90;;;;;;5014825;28;20248;-64
2023/06/10 05:14:58;;;;;;;1.00;1.00;;;20.00;99.90;;;;;;5013325;28;20217;-64
2023/06/10 05:17:27;;;;;;;0.95;0.80;;;20.10;99.90;;;;;;5017706;28;20609;-63
2023/06/10 05:19:56;;;;;;;0.70;0.68;;;20.20;99.90;;;;;;5013822;28;20198;-64
2023/06/10 05:22:24;;;;;;;2.25;0.80;;;20.30;99.90;;;;;;5014005;28;20700;-63
2023/06/10 05:24:52;;;;;;;1.27;0.85;;;20.40;99.90;;;;;;5020149;28;20209;-64
2023/06/10 05:27:21;;;;;;;0.80;0.70;;;20.40;99.90;;;;;;5012861;28;20233;-64
2023/06/10 05:29:51;;;;;;;0.93;0.80;;;20.50;99.90;;;;;;5022668;28;20201;-63
2023/06/10 05:32:19;;;;;;;1.10;0.90;;;20.60;99.90;;;;;;5030904;28;20255;-63
2023/06/10 05:34:47;;;;;;;1.23;0.95;;;20.70;99.90;;;;;;5019912;28;20209;-64
2023/06/10 05:37:16;;;;;;;1.23;0.98;;;20.80;99.90;;;;;;5020762;28;20756;-64
2023/06/10 05:39:44;;;;;;;0.80;0.80;;;20.90;99.90;;;;;;5027650;28;20703;-64
2023/06/10 05:42:12;;;;;;;0.90;0.65;;;21.10;99.90;;;;;;5030010;28;20290;-64
2023/06/10 05:44:40;;;;;;;1.75;1.65;;;21.20;99.90;;;;;;5030986;28;20593;-63
2023/06/10 05:47:08;;;;;;;0.80;0.75;;;21.20;99.90;;;;;;5030719;28;20226;-63
2023/06/10 05:49:36;;;;;;;1.42;1.33;;;21.40;99.90;;;;;;5029653;28;20212;-64
2023/06/10 05:52:04;;;;;;;0.70;0.65;;;21.50;99.90;;;;;;5022304;28;20237;-64
2023/06/10 05:54:33;;;;;;;0.95;0.85;;;21.60;99.90;;;;;;5029593;28;20243;-64
2023/06/10 05:57:03;;;;;;;1.00;0.80;;;21.60;99.90;;;;;;5029801;28;20236;-63
2023/06/10 05:59:31;;;;;;;0.70;0.70;;;21.70;99.90;;;;;;5029076;28;20211;-64
2023/06/10 06:01:59;;;;;;;0.80;0.80;;;21.90;99.90;;;;;;5028784;28;20224;-64
2023/06/10 06:04:27;;;;;;;0.70;0.70;;;21.90;99.90;;;;;;5030095;28;20618;-65
2023/06/10 06:06:55;;;;;;;1.27;1.17;;;22.00;99.90;;;;;;5031260;28;20242;-63
2023/06/10 06:09:23;;;;;;;1.00;1.00;;;22.10;99.90;;;;;;5029757;28;20844;-64
2023/06/10 06:11:52;;;;;;;0.95;0.85;;;22.10;99.90;;;;;;5030293;28;20223;-64
2023/06/10 06:14:20;;;;;;;1.98;0.73;;;22.20;99.90;;;;;;5031960;28;20205;-64
2023/06/10 06:16:48;;;;;;;2.22;1.50;;;22.30;99.90;;;;;;5026718;28;20678;-63
2023/06/10 06:19:16;;;;;;;1.05;1.05;;;22.40;99.90;;;;;;5028530;28;20247;-63
2023/06/10 06:21:44;;;;;;;1.30;0.98;;;22.40;99.90;;;;;;5030790;28;20876;-62
2023/06/10 06:24:12;;;;;;;1.05;0.95;;;22.60;99.90;;;;;;5028865;28;20209;-63
2023/06/10 06:26:40;;;;;;;0.80;0.80;;;22.70;99.90;;;;;;5029307;28;20230;-63
2023/06/10 06:29:09;;;;;;;0.88;0.88;;;22.80;99.90;;;;;;5026183;28;20678;-63
2023/06/10 06:31:37;;;;;;;0.80;0.80;;;22.90;99.90;;;;;;5029490;28;20792;-63
2023/06/10 06:34:05;;;;;;;2.38;1.23;;;23.00;99.90;;;;;;5028840;28;20689;-64
2023/06/10 06:36:33;;;;;;;2.95;1.23;;;23.10;99.90;;;;;;5026167;28;20265;-62
2023/06/10 06:39:01;;;;;;;0.80;0.70;;;23.10;99.90;;;;;;5019034;28;20223;-61
2023/06/10 06:41:29;;;;;;;0.70;0.70;;;23.10;99.90;;;;;;5025701;28;20227;-65
2023/06/10 06:43:57;;;;;;;0.98;0.82;;;23.10;99.90;;;;;;5032568;28;20701;-64
2023/06/10 06:46:26;;;;;;;0.88;0.82;;;23.10;99.90;;;;;;5031781;28;20223;-64
2023/06/10 06:48:54;;;;;;;1.08;0.82;;;23.20;99.90;;;;;;5032812;28;20224;-63
2023/06/10 06:51:22;;;;;;;1.85;0.90;;;23.20;99.90;;;;;;5032404;28;20258;-64
2023/06/10 06:53:51;;;;;;;0.70;0.68;;;23.30;99.90;;;;;;5025481;28;20206;-62
2023/06/10 06:56:19;;;;;;;1.20;1.10;;;23.30;99.90;;;;;;5030482;28;20201;-60
2023/06/10 06:58:47;;;;;;;1.02;0.90;;;23.40;99.90;;;;;;5024015;28;20222;-62
2023/06/10 07:01:14;;;;;;;1.15;1.05;;;23.50;99.90;;;;;;5026439;28;20284;-63
2023/06/10 07:03:44;;;;;;;1.05;0.73;;;23.50;99.90;;;;;;5030154;28;20198;-63
2023/06/10 07:06:13;;;;;;;0.90;0.70;;;23.50;99.90;;;;;;5022749;28;20641;-64
2023/06/10 07:08:41;;;;;;;1.08;0.80;;;23.60;99.90;;;;;;5024012;28;20213;-63
2023/06/10 07:11:09;;;;;;;1.10;1.00;;;23.70;99.90;;;;;;5024032;28;20231;-63
2023/06/10 07:13:37;;;;;;;1.10;1.00;;;23.60;99.90;;;;;;5026593;28;20638;-63
2023/06/10 07:16:05;;;;;;;1.02;0.93;;;23.60;99.90;;;;;;5028658;28;20639;-63
2023/06/10 07:18:33;;;;;;;3.35;1.50;;;23.70;99.90;;;;;;5027790;28;20826;-63
2023/06/10 07:21:02;;;;;;;0.80;0.70;;;23.90;99.90;;;;;;5028303;28;20592;-63
2023/06/10 07:23:30;;;;;;;1.20;1.10;;;24.00;99.90;;;;;;5025659;28;20670;-63
2023/06/10 07:25:58;;;;;;;1.00;0.60;;;24.00;99.90;;;;;;5028134;28;20212;-64
2023/06/10 07:28:26;;;;;;;1.45;0.88;;;24.10;99.90;;;;;;5028486;28;20692;-63
2023/06/10 07:30:54;;;;;;;1.10;1.00;;;24.10;99.90;;;;;;5029715;28;20242;-63
2023/06/10 07:33:22;;;;;;;1.15;1.05;;;24.20;99.90;;;;;;5030157;28;20217;-64
2023/06/10 07:35:50;;;;;;;1.63;1.13;;;24.30;99.90;;;;;;5028406;28;20214;-64
2023/06/10 07:38:19;;;;;;;1.02;0.93;;;24.50;99.90;;;;;;5027597;28;20211;-63
2023/06/10 07:40:47;;;;;;;1.25;0.90;;;24.60;99.90;;;;;;5028883;28;20214;-63
2023/06/10 07:43:15;;;;;;;1.52;1.40;;;24.70;99.90;;;;;;5029149;28;20221;-62
2023/06/10 07:45:43;;;;;;;1.38;0.95;;;24.80;99.90;;;;;;5026437;28;20285;-63
2023/06/10 07:48:11;;;;;;;0.75;0.75;;;24.90;99.90;;;;;;5024546;28;20283;-63
2023/06/10 07:50:40;;;;;;;0.93;0.85;;;24.90;99.90;;;;;;5025848;28;20246;-63
2023/06/10 07:53:08;;;;;;;0.95;0.90;;;25.00;99.90;;;;;;5027397;28;20227;-63
2023/06/10 07:55:37;;;;;;;1.50;1.13;;;25.10;99.90;;;;;;5027307;28;20210;-64
2023/06/10 07:58:05;;;;;;;1.08;0.98;;;25.20;99.90;;;;;;5029072;28;20216;-63
2023/06/10 08:00:33;;;;;;;1.90;1.73;;;25.30;99.90;;;;;;5024743;28;20221;-63
2023/06/10 08:03:00;;;;;;;1.02;0.93;;;25.30;99.90;;;;;;5026178;28;20206;-63
2023/06/10 08:05:29;;;;;;;0.98;0.98;;;25.40;99.90;;;;;;5025067;28;20210;-64
2023/06/10 08:07:57;;;;;;;1.75;1.20;;;25.50;99.60;;;;;;5025115;28;20226;-63
2023/06/10 08:10:27;;;;;;;1.67;1.42;;;25.60;99.60;;;;;;5025840;28;20583;-63
2023/06/10 08:12:56;;;;;;;0.80;0.80;;;25.90;99.70;;;;;;5024453;28;20274;-64
2023/06/10 08:15:24;;;;;;;1.20;1.10;;;26.00;99.70;;;;;;5023990;28;20206;-63
2023/06/10 08:17:52;;;;;;;1.15;1.00;;;25.90;99.70;;;;;;5026672;28;20961;-64
2023/06/10 08:20:20;;;;;;;0.93;0.93;;;26.10;99.90;;;;;;5026063;28;20552;-63
2023/06/10 08:22:48;;;;;;;2.08;1.20;;;26.20;99.90;;;;;;5028837;28;20745;-63
2023/06/10 08:25:16;;;;;;;1.08;0.95;;;26.40;99.30;;;;;;5025945;28;20212;-63
2023/06/10 08:27:43;;;;;;;1.50;1.40;;;26.70;99.90;;;;;;5026468;28;20580;-63
2023/06/10 08:30:14;;;;;;;2.78;1.98;;;26.70;98.20;;;;;;5020668;28;20247;-64
2023/06/10 08:32:42;;;;;;;1.95;0.60;;;26.80;98.50;;;;;;5026063;28;20242;-63
2023/06/10 08:35:10;;;;;;;1.00;0.90;;;26.90;98.40;;;;;;5025026;28;20205;-64
2023/06/10 08:37:38;;;;;;;0.90;0.90;;;27.10;99.20;;;;;;5025627;28;20287;-64
2023/06/10 08:40:07;;;;;;;1.15;1.05;;;27.30;97.60;;;;;;5026202;28;20207;-64
2023/06/10 08:42:40;;;;;;;1.20;1.10;;;27.30;97.80;;;;;;5024238;28;20652;-64
2023/06/10 08:45:11;;;;;;;1.10;0.77;;;27.30;97.70;;;;;;5028564;28;20212;-64
2023/06/10 08:47:45;;;;;;;1.02;0.98;;;27.30;97.20;;;;;;5028948;28;20292;-63
2023/06/10 08:50:13;;;;;;;1.00;0.90;;;27.40;97.40;;;;;;5030568;28;20679;-63
2023/06/10 08:52:44;;;;;;;1.17;1.08;;;27.50;97.90;;;;;;5032993;28;20220;-64
2023/06/10 08:55:17;;;;;;;1.83;1.38;;;27.60;98.00;;;;;;5031381;28;20207;-63
2023/06/10 08:57:47;;;;;;;1.20;1.10;;;27.60;97.40;;;;;;5029580;28;20209;-64
2023/06/10 09:00:17;;;;;;;0.70;0.68;;;27.70;97.90;;;;;;5030487;28;20208;-64
2023/06/10 09:02:47;;;;;;;0.60;0.60;;;27.90;97.30;;;;;;5028189;28;20235;-63
2023/06/10 09:05:15;;;;;;;0.80;0.80;;;27.90;96.80;;;;;;5028459;28;20273;-64
2023/06/10 09:07:43;;;;;;;1.10;1.00;;;28.10;97.60;;;;;;5024625;28;20221;-64
2023/06/10 09:10:12;;;;;;;0.88;0.88;;;28.30;97.10;;;;;;5026147;28;20277;-64
2023/06/10 09:12:40;;;;;;;1.10;1.00;;;28.40;96.90;;;;;;5030372;28;20271;-64
2023/06/10 09:15:11;;;;;;;1.40;1.30;;;28.60;97.10;;;;;;5031052;28;20619;-64
2023/06/10 09:17:40;;;;;;;1.00;0.90;;;28.50;96.20;;;;;;5030526;28;20204;-64
2023/06/10 09:20:10;;;;;;;1.10;0.70;;;28.50;96.60;;;;;;5030640;28;20288;-64
2023/06/10 09:22:38;;;;;;;0.90;0.90;;;28.80;96.30;;;;;;5032193;28;20244;-64
2023/06/10 09:25:08;;;;;;;1.25;1.15;;;28.70;96.00;;;;;;5031405;28;20230;-65
2023/06/10 09:27:48;;;;;;;1.08;0.98;;;28.80;97.10;;;;;;5031432;28;20592;-63
2023/06/10 09:30:27;;;;;;;1.35;1.25;;;29.20;96.30;;;;;;5031391;28;20295;-64
2023/06/10 09:32:56;;;;;;;1.58;1.05;;;29.40;95.30;;;;;;5031937;28;20240;-63
2023/06/10 09:35:27;;;;;;;1.77;1.33;;;29.60;96.00;;;;;;5030855;28;20213;-64
2023/06/10 09:37:57;;;;;;;0.95;0.80;;;29.60;95.00;;;;;;5020887;28;20279;-63
2023/06/10 09:40:26;;;;;;;1.15;0.90;;;29.80;93.80;;;;;;5026806;28;20721;-64
2023/06/10 09:42:55;;;;;;;1.38;1.27;;;30.00;94.30;;;;;;5032687;28;20228;-65
2023/06/10 09:45:32;;;;;;;1.77;1.67;;;30.00;95.00;;;;;;5031203;23;20208;31
2023/06/10 09:48:01;;;;;;;1.23;1.13;;;30.00;95.20;;;;;;4990251;28;20306;-69
2023/06/10 09:50:34;;;;;;;2.15;1.00;;;30.30;95.00;;;;;;4993296;28;20272;-68
2023/06/10 09:53:02;;;;;;;1.52;1.42;;;30.10;93.70;;;;;;4986475;28;20226;-67
2023/06/10 09:55:34;;;;;;;1.60;1.23;;;30.50;94.10;;;;;;4992801;28;20577;-69
2023/06/10 09:58:02;;;;;;;2.05;1.00;;;30.70;93.90;;;;;;4972776;28;20216;-68
2023/06/10 10:00:32;;;;;;;0.93;0.90;;;30.80;93.50;;;;;;4973776;28;20845;-68
2023/06/10 10:03:01;;;;;;;1.10;1.00;;;30.70;92.70;;;;;;4966822;28;20219;-68
2023/06/10 10:05:30;;;;;;;1.43;1.33;;;30.90;92.90;;;;;;4974014;28;20207;-68
2023/06/10 10:07:59;;;;;;;1.10;1.00;;;30.60;93.00;;;;;;4973097;28;20737;-70
2023/06/10 10:10:27;;;;;;;0.90;0.90;;;30.70;92.90;;;;;;4974126;28;20218;-68
2023/06/10 10:12:57;;;;;;;1.10;1.00;;;30.70;92.50;;;;;;4973982;28;20639;-67
2023/06/10 10:15:29;;;;;;;1.35;0.82;;;30.40;92.90;;;;;;4973803;28;20253;-67
2023/06/10 10:18:06;;;;;;;1.03;0.90;;;30.40;92.90;;;;;;4973503;28;20214;-68
2023/06/10 10:20:42;;;;;;;1.30;1.13;;;30.50;92.00;;;;;;4973998;28;20633;-68
2023/06/10 10:23:15;;;;;;;1.17;1.07;;;30.70;92.60;;;;;;4967037;28;20634;-68
2023/06/10 10:25:44;;;;;;;0.88;0.88;;;31.40;92.10;;;;;;4973622;28;20630;-68
2023/06/10 10:28:13;;;;;;;3.58;1.90;;;31.20;91.70;;;;;;4973318;28;20249;-68
2023/06/10 10:30:43;;;;;;;0.98;0.90;;;31.50;91.50;;;;;;4974316;28;20229;-69
2023/06/10 10:33:17;;;;;;;1.20;1.10;;;31.70;91.40;;;;;;4956709;28;20222;-70
2023/06/10 10:35:47;;;;;;;0.73;0.73;;;31.80;90.80;;;;;;4973225;28;20672;-69
2023/06/10 10:38:16;;;;;;;0.80;0.80;;;31.80;91.60;;;;;;4972941;28;20643;-70
2023/06/10 10:40:46;;;;;;;1.10;1.00;;;31.80;90.60;;;;;;4973402;28;21220;-69
2023/06/10 10:43:15;;;;;;;1.40;1.27;;;31.70;90.30;;;;;;4973826;28;21298;-69
2023/06/10 10:45:43;;;;;;;1.40;1.13;;;31.60;89.50;;;;;;4972945;28;21197;-69
2023/06/10 10:48:11;;;;;;;1.23;1.13;;;31.60;90.70;;;;;;4972919;28;20628;-69
2023/06/10 10:50:41;;;;;;;0.90;0.90;;;31.80;90.50;;;;;;4973148;28;20653;-69
2023/06/10 10:53:10;;;;;;;0.70;0.63;;;31.90;89.10;;;;;;4973388;28;20626;-71
2023/06/10 10:55:38;;;;;;;0.80;0.80;;;32.10;89.30;;;;;;4973107;28;20644;-68
2023/06/10 10:58:07;;;;;;;0.70;0.67;;;32.40;88.80;;;;;;4972927;28;20635;-68
2023/06/10 11:00:37;;;;;;;0.93;0.80;;;32.20;89.10;;;;;;4973258;28;20628;-68
2023/06/10 11:03:07;;;;;;;1.83;1.20;;;32.50;89.20;;;;;;4965755;28;20753;-67
2023/06/10 11:05:41;;;;;;;1.33;1.23;;;31.70;89.10;;;;;;4972393;28;20626;-69
2023/06/10 11:08:11;;;;;;;0.80;0.80;;;31.60;89.20;;;;;;4965300;28;20640;-70
2023/06/10 11:10:41;;;;;;;2.47;1.00;;;31.50;89.10;;;;;;4972888;28;20777;-69
2023/06/10 11:13:13;;;;;;;0.80;0.80;;;31.10;89.50;;;;;;4973295;28;20622;-70
2023/06/10 11:15:46;;;;;;;1.23;1.13;;;31.20;90.00;;;;;;4972347;28;20618;-69
2023/06/10 11:18:23;;;;;;;1.20;1.10;;;31.10;87.90;;;;;;4972652;28;20673;-69
2023/06/10 11:20:59;;;;;;;0.70;0.70;;;30.80;89.00;;;;;;4972569;28;20622;-68
2023/06/10 11:23:42;;;;;;;0.93;0.90;;;30.90;89.70;;;;;;4972522;28;20683;-70
2023/06/10 11:26:14;;;;;;;0.98;0.93;;;31.10;87.80;;;;;;4972508;28;20655;-68
2023/06/10 11:29:01;;;;;;;0.80;0.70;;;31.20;89.20;;;;;;4972032;28;20231;-69
2023/06/10 11:31:30;;;;;;;0.90;0.90;;;31.70;88.10;;;;;;4972716;28;20684;-69
2023/06/10 11:34:01;;;;;;;0.80;0.80;;;32.00;86.50;;;;;;4971939;28;20683;-69
2023/06/10 11:36:29;;;;;;;1.40;1.27;;;32.30;88.10;;;;;;4972493;28;21258;-67
2023/06/10 11:39:00;;;;;;;1.17;0.90;;;32.60;85.50;;;;;;4970744;28;20691;-67
2023/06/10 11:41:30;;;;;;;0.70;0.70;;;32.40;84.10;;;;;;4972659;28;20640;-67
2023/06/10 11:44:02;;;;;;;0.80;0.80;;;32.50;84.30;;;;;;4972179;28;20629;-68
2023/06/10 11:46:30;;;;;;;0.73;0.73;;;32.70;85.50;;;;;;4972293;28;20667;-68
2023/06/10 11:49:00;;;;;;;0.80;0.70;;;32.70;84.70;;;;;;4971725;28;20677;-68
2023/06/10 11:51:29;;;;;;;0.80;0.70;;;33.00;82.60;;;;;;4972394;28;20630;-68
2023/06/10 11:53:59;;;;;;;0.77;0.73;;;33.00;83.60;;;;;;4971740;28;21266;-68
2023/06/10 11:56:28;;;;;;;0.80;0.80;;;32.60;81.20;;;;;;4972216;28;20728;-71
2023/06/10 11:58:58;;;;;;;0.90;0.90;;;32.40;79.80;;;;;;4971831;28;20684;-67
2023/06/10 12:01:27;;;;;;;0.97;0.87;;;32.30;80.70;;;;;;4972309;28;21164;-68
2023/06/10 12:04:01;;;;;;;1.07;0.80;;;32.20;79.10;;;;;;4971733;28;20647;-67
2023/06/10 12:06:39;;;;;;;0.70;0.70;;;32.40;80.70;;;;;;4972078;28;20646;-68
2023/06/10 12:09:13;;;;;;;0.93;0.87;;;32.60;78.90;;;;;;4971316;28;20649;-68
2023/06/10 12:11:52;;;;;;;1.20;1.00;;;32.80;80.10;;;;;;4972129;28;20624;-68
2023/06/10 12:15:05;;;;;;;1.00;0.93;;;32.40;79.00;;;;;;4971780;28;20635;-67
2023/06/10 12:17:39;;;;;;;0.70;0.70;;;32.50;79.10;;;;;;4961044;28;20665;-68
2023/06/10 12:20:08;;;;;;;0.90;0.90;;;32.40;77.70;;;;;;4972066;28;21185;-68
2023/06/10 12:22:40;;;;;;;1.67;1.37;;;32.50;79.60;;;;;;4972007;28;20620;-67
2023/06/10 12:25:10;;;;;;;1.10;1.03;;;32.80;79.10;;;;;;4963386;28;20625;-67
2023/06/10 12:27:40;;;;;;;0.87;0.80;;;33.10;77.70;;;;;;4971524;28;20652;-68
2023/06/10 12:30:09;;;;;;;1.23;1.13;;;33.00;75.60;;;;;;4964201;28;20657;-68
2023/06/10 12:32:42;;;;;;;0.97;0.97;;;33.70;76.40;;;;;;4971875;28;20640;-68
2023/06/10 12:35:11;;;;;;;0.90;0.90;;;33.80;76.10;;;;;;4963721;28;20635;-67
2023/06/10 12:37:40;;;;;;;0.80;0.80;;;33.20;76.40;;;;;;4971483;28;21327;-70
2023/06/10 12:40:12;;;;;;;0.80;0.80;;;32.60;75.50;;;;;;4971700;28;20618;-67
2023/06/10 12:42:41;;;;;;;1.10;0.87;;;32.10;77.60;;;;;;4971784;28;20723;-68
2023/06/10 12:45:11;;;;;;;0.70;0.67;;;31.70;78.20;;;;;;4963599;28;21383;-68
2023/06/10 12:47:41;;;;;;;0.73;0.73;;;31.70;77.70;;;;;;4971146;28;21115;-67
2023/06/10 12:50:11;;;;;;;0.67;0.60;;;31.80;78.00;;;;;;4963717;28;20653;-68
2023/06/10 12:52:40;;;;;;;1.37;0.80;;;32.10;78.30;;;;;;4971595;28;20632;-67
2023/06/10 12:55:14;;;;;;;0.90;0.80;;;32.10;77.10;;;;;;4972464;28;20638;-67
2023/06/10 12:57:49;;;;;;;1.10;1.00;;;32.60;78.00;;;;;;4971001;28;20668;-68
2023/06/10 13:00:19;;;;;;;2.53;0.90;;;33.30;77.10;;;;;;4971430;28;20644;-68